sensor_id;sensor_type;location;lat;lon;timestamp;pressure;altitude;pressure_sealevel;temperature;humidity
76126;BME280;65174;48.138;21.002;2023-08-07T00:00:29;98197.41;;;16.26;100.00
76126;BME280;65174;48.138;21.002;2023-08-07T00:03:31;98195.63;;;16.35;100.00
76126;BME280;65174;48.138;21.002;2023-08-07T00:06:33;98207.16;;;16.40;100.00
76126;BME280;65174;48.138;21.002;2023-08-07T00:09:35;98201.00;;;16.41;100.00
76126;BME280;65174;48.138;21.002;2023-08-07T00:12:37;98193.84;;;16.27;98.56
76126;BME280;65174;48.138;21.002;2023-08-07T00:15:39;98209.13;;;16.30;100.00
76126;BME280;65174;48.138;21.002;2023-08-07T00:18:41;98196.44;;;16.35;96.77
76126;BME280;65174;48.138;21.002;2023-08-07T00:21:43;98208.00;;;16.33;97.70
76126;BME280;65174;48.138;21.002;2023-08-07T00:24:45;98187.34;;;16.39;91.95
76126;BME280;65174;48.138;21.002;2023-08-07T00:27:47;98193.00;;;16.43;91.08
76126;BME280;65174;48.138;21.002;2023-08-07T00:30:49;98201.47;;;16.37;92.79
76126;BME280;65174;48.138;21.002;2023-08-07T00:33:51;98211.41;;;16.33;94.93
76126;BME280;65174;48.138;21.002;2023-08-07T00:36:55;98213.69;;;16.28;94.98
76126;BME280;65174;48.138;21.002;2023-08-07T00:39:57;98212.56;;;16.31;94.02
76126;BME280;65174;48.138;21.002;2023-08-07T00:42:59;98217.28;;;16.27;94.31
76126;BME280;65174;48.138;21.002;2023-08-07T00:46:02;98221.84;;;16.25;92.20
76126;BME280;65174;48.138;21.002;2023-08-07T00:49:04;98229.13;;;16.22;93.46
76126;BME280;65174;48.138;21.002;2023-08-07T00:52:07;98233.53;;;16.13;96.29
76126;BME280;65174;48.138;21.002;2023-08-07T00:55:09;98237.09;;;16.12;97.18
76126;BME280;65174;48.138;21.002;2023-08-07T00:58:11;98227.19;;;16.08;94.05
76126;BME280;65174;48.138;21.002;2023-08-07T01:01:13;98226.19;;;16.09;93.33
76126;BME280;65174;48.138;21.002;2023-08-07T01:04:16;98224.59;;;16.08;93.20
76126;BME280;65174;48.138;21.002;2023-08-07T01:07:18;98227.50;;;16.05;92.84
76126;BME280;65174;48.138;21.002;2023-08-07T01:10:54;98234.81;;;16.01;94.90
76126;BME280;65174;48.138;21.002;2023-08-07T01:17:25;98241.66;;;16.02;95.89
76126;BME280;65174;48.138;21.002;2023-08-07T01:20:28;98249.59;;;15.84;97.95
76126;BME280;65174;48.138;21.002;2023-08-07T01:23:30;98256.25;;;15.79;97.65
76126;BME280;65174;48.138;21.002;2023-08-07T01:26:33;98257.75;;;15.89;98.34
76126;BME280;65174;48.138;21.002;2023-08-07T01:29:43;98257.88;;;15.88;98.51
76126;BME280;65174;48.138;21.002;2023-08-07T01:36:27;98249.59;;;15.93;97.38
76126;BME280;65174;48.138;21.002;2023-08-07T01:39:31;98237.91;;;15.97;93.39
76126;BME280;65174;48.138;21.002;2023-08-07T01:42:35;98246.34;;;15.90;96.20
76126;BME280;65174;48.138;21.002;2023-08-07T01:45:37;98243.56;;;15.92;93.58
76126;BME280;65174;48.138;21.002;2023-08-07T01:48:39;98249.13;;;15.97;94.92
76126;BME280;65174;48.138;21.002;2023-08-07T01:51:41;98254.97;;;15.91;94.78
76126;BME280;65174;48.138;21.002;2023-08-07T01:54:43;98250.41;;;15.85;95.38
76126;BME280;65174;48.138;21.002;2023-08-07T01:57:45;98252.84;;;15.86;94.39
76126;BME280;65174;48.138;21.002;2023-08-07T02:00:47;98255.75;;;15.83;92.97
76126;BME280;65174;48.138;21.002;2023-08-07T02:03:49;98261.59;;;15.77;93.37
76126;BME280;65174;48.138;21.002;2023-08-07T02:06:51;98267.44;;;15.71;93.46
76126;BME280;65174;48.138;21.002;2023-08-07T02:09:55;98269.06;;;15.64;93.23
76126;BME280;65174;48.138;21.002;2023-08-07T02:12:57;98262.69;;;15.59;94.03
76126;BME280;65174;48.138;21.002;2023-08-07T02:16:01;98269.81;;;15.57;93.82
76126;BME280;65174;48.138;21.002;2023-08-07T02:19:04;98271.00;;;15.62;93.78
76126;BME280;65174;48.138;21.002;2023-08-07T02:22:05;98269.34;;;15.61;93.72
76126;BME280;65174;48.138;21.002;2023-08-07T02:25:08;98276.19;;;15.62;93.70
76126;BME280;65174;48.138;21.002;2023-08-07T02:28:12;98272.41;;;15.57;94.02
76126;BME280;65174;48.138;21.002;2023-08-07T02:31:14;98277.44;;;15.58;93.83
76126;BME280;65174;48.138;21.002;2023-08-07T02:34:16;98282.53;;;15.60;94.47
76126;BME280;65174;48.138;21.002;2023-08-07T02:37:18;98281.50;;;15.53;94.69
76126;BME280;65174;48.138;21.002;2023-08-07T02:40:20;98282.00;;;15.56;94.43
76126;BME280;65174;48.138;21.002;2023-08-07T02:43:22;98282.53;;;15.60;94.93
76126;BME280;65174;48.138;21.002;2023-08-07T02:46:24;98289.34;;;15.61;95.30
76126;BME280;65174;48.138;21.002;2023-08-07T02:49:26;98284.47;;;15.58;95.82
76126;BME280;65174;48.138;21.002;2023-08-07T02:52:28;98286.72;;;15.61;94.44
76126;BME280;65174;48.138;21.002;2023-08-07T02:55:30;98285.44;;;15.65;94.36
76126;BME280;65174;48.138;21.002;2023-08-07T02:58:32;98288.69;;;15.67;93.74
76126;BME280;65174;48.138;21.002;2023-08-07T03:01:34;98288.03;;;15.65;94.22
76126;BME280;65174;48.138;21.002;2023-08-07T03:04:36;98295.16;;;15.55;95.80
76126;BME280;65174;48.138;21.002;2023-08-07T03:07:38;98291.75;;;15.54;95.69
76126;BME280;65174;48.138;21.002;2023-08-07T03:10:40;98301.00;;;15.49;95.74
76126;BME280;65174;48.138;21.002;2023-08-07T03:13:42;98294.22;;;15.56;94.34
76126;BME280;65174;48.138;21.002;2023-08-07T03:16:45;98303.63;;;15.57;94.68
76126;BME280;65174;48.138;21.002;2023-08-07T03:19:48;98312.00;;;15.43;96.61
76126;BME280;65174;48.138;21.002;2023-08-07T03:22:51;98314.34;;;15.28;97.02
76126;BME280;65174;48.138;21.002;2023-08-07T03:26:22;98331.13;;;15.42;97.96
76126;BME280;65174;48.138;21.002;2023-08-07T03:29:25;98335.91;;;15.46;98.48
76126;BME280;65174;48.138;21.002;2023-08-07T03:32:27;98338.38;;;15.48;96.84
76126;BME280;65174;48.138;21.002;2023-08-07T03:35:29;98338.50;;;15.46;96.14
76126;BME280;65174;48.138;21.002;2023-08-07T03:38:31;98328.09;;;15.46;95.96
76126;BME280;65174;48.138;21.002;2023-08-07T03:41:34;98331.22;;;15.50;95.34
76126;BME280;65174;48.138;21.002;2023-08-07T03:44:36;98322.63;;;15.57;94.54
76126;BME280;65174;48.138;21.002;2023-08-07T03:47:38;98322.34;;;15.60;94.22
76126;BME280;65174;48.138;21.002;2023-08-07T03:50:40;98335.94;;;15.54;95.07
76126;BME280;65174;48.138;21.002;2023-08-07T03:53:42;98342.94;;;15.54;96.67
76126;BME280;65174;48.138;21.002;2023-08-07T03:56:45;98337.94;;;15.60;94.93
76126;BME280;65174;48.138;21.002;2023-08-07T03:59:48;98353.03;;;15.65;96.45
76126;BME280;65174;48.138;21.002;2023-08-07T04:02:50;98349.00;;;15.62;96.59
76126;BME280;65174;48.138;21.002;2023-08-07T04:05:53;98353.53;;;15.60;97.62
76126;BME280;65174;48.138;21.002;2023-08-07T04:08:56;98356.44;;;15.57;97.74
76126;BME280;65174;48.138;21.002;2023-08-07T04:11:58;98350.25;;;15.58;95.70
76126;BME280;65174;48.138;21.002;2023-08-07T04:15:00;98352.78;;;15.76;95.92
76126;BME280;65174;48.138;21.002;2023-08-07T04:18:02;98350.66;;;15.79;93.23
76126;BME280;65174;48.138;21.002;2023-08-07T04:21:04;98357.50;;;15.80;94.24
76126;BME280;65174;48.138;21.002;2023-08-07T04:24:06;98353.16;;;15.97;92.54
76126;BME280;65174;48.138;21.002;2023-08-07T04:27:12;98351.88;;;16.01;93.08
76126;BME280;65174;48.138;21.002;2023-08-07T04:30:14;98353.81;;;15.99;93.42
76126;BME280;65174;48.138;21.002;2023-08-07T04:33:16;98348.16;;;16.04;93.20
76126;BME280;65174;48.138;21.002;2023-08-07T04:36:18;98357.72;;;16.03;93.24
76126;BME280;65174;48.138;21.002;2023-08-07T04:39:20;98354.94;;;15.97;93.91
76126;BME280;65174;48.138;21.002;2023-08-07T04:42:22;98348.78;;;15.98;92.84
76126;BME280;65174;48.138;21.002;2023-08-07T04:45:24;98354.66;;;16.08;92.28
76126;BME280;65174;48.138;21.002;2023-08-07T04:48:26;98364.25;;;16.15;93.38
76126;BME280;65174;48.138;21.002;2023-08-07T04:51:28;98352.09;;;16.24;89.63
76126;BME280;65174;48.138;21.002;2023-08-07T04:54:32;98356.38;;;16.57;90.07
76126;BME280;65174;48.138;21.002;2023-08-07T04:57:34;98352.50;;;16.77;87.23
76126;BME280;65174;48.138;21.002;2023-08-07T05:00:36;98362.75;;;16.71;89.16
76126;BME280;65174;48.138;21.002;2023-08-07T05:03:38;98362.41;;;16.65;89.49
76126;BME280;65174;48.138;21.002;2023-08-07T05:06:40;98369.09;;;16.60;89.60
76126;BME280;65174;48.138;21.002;2023-08-07T05:09:42;98366.19;;;16.63;90.83
76126;BME280;65174;48.138;21.002;2023-08-07T05:12:44;98374.78;;;16.72;89.36
76126;BME280;65174;48.138;21.002;2023-08-07T05:15:49;98364.88;;;16.67;89.39
76126;BME280;65174;48.138;21.002;2023-08-07T05:18:51;98366.97;;;16.63;88.68
76126;BME280;65174;48.138;21.002;2023-08-07T05:21:53;98367.78;;;16.64;88.40
76126;BME280;65174;48.138;21.002;2023-08-07T05:24:55;98371.69;;;16.68;88.55
76126;BME280;65174;48.138;21.002;2023-08-07T05:27:57;98374.63;;;16.81;88.08
76126;BME280;65174;48.138;21.002;2023-08-07T05:30:59;98384.09;;;16.90;89.28
76126;BME280;65174;48.138;21.002;2023-08-07T05:34:01;98374.44;;;16.99;88.42
76126;BME280;65174;48.138;21.002;2023-08-07T05:37:04;98380.16;;;17.02;87.55
76126;BME280;65174;48.138;21.002;2023-08-07T05:40:06;98386.50;;;17.16;86.42
76126;BME280;65174;48.138;21.002;2023-08-07T05:43:08;98386.28;;;17.58;84.73
76126;BME280;65174;48.138;21.002;2023-08-07T05:46:10;98386.75;;;17.69;81.39
76126;BME280;65174;48.138;21.002;2023-08-07T05:49:12;98389.81;;;17.73;81.17
76126;BME280;65174;48.138;21.002;2023-08-07T05:52:14;98388.31;;;17.86;80.53
76126;BME280;65174;48.138;21.002;2023-08-07T05:55:16;98396.56;;;17.98;82.23
76126;BME280;65174;48.138;21.002;2023-08-07T05:58:18;98394.97;;;17.97;78.88
76126;BME280;65174;48.138;21.002;2023-08-07T06:01:20;98399.72;;;18.24;78.62
76126;BME280;65174;48.138;21.002;2023-08-07T06:04:22;98395.41;;;18.31;79.28
76126;BME280;65174;48.138;21.002;2023-08-07T06:07:24;98394.25;;;18.34;77.83
76126;BME280;65174;48.138;21.002;2023-08-07T06:10:27;98402.06;;;18.11;77.74
76126;BME280;65174;48.138;21.002;2023-08-07T06:13:29;98403.97;;;17.86;78.33
76126;BME280;65174;48.138;21.002;2023-08-07T06:16:37;98402.56;;;17.68;78.52
76126;BME280;65174;48.138;21.002;2023-08-07T06:19:39;98405.19;;;17.52;77.99
76126;BME280;65174;48.138;21.002;2023-08-07T06:22:41;98408.63;;;17.52;77.95
76126;BME280;65174;48.138;21.002;2023-08-07T06:25:43;98414.63;;;17.61;78.51
76126;BME280;65174;48.138;21.002;2023-08-07T06:28:45;98414.13;;;17.73;78.21
76126;BME280;65174;48.138;21.002;2023-08-07T06:31:47;98417.03;;;18.17;78.38
76126;BME280;65174;48.138;21.002;2023-08-07T06:34:49;98411.38;;;18.44;77.74
76126;BME280;65174;48.138;21.002;2023-08-07T06:37:51;98420.16;;;18.51;75.16
76126;BME280;65174;48.138;21.002;2023-08-07T06:40:53;98419.53;;;18.72;75.84
76126;BME280;65174;48.138;21.002;2023-08-07T06:43:55;98420.63;;;18.77;74.50
76126;BME280;65174;48.138;21.002;2023-08-07T06:46:57;98427.25;;;18.88;73.95
76126;BME280;65174;48.138;21.002;2023-08-07T06:49:58;98430.53;;;19.04;73.54
76126;BME280;65174;48.138;21.002;2023-08-07T06:53:00;98435.59;;;19.06;72.01
76126;BME280;65174;48.138;21.002;2023-08-07T06:56:02;98432.13;;;18.91;70.76
76126;BME280;65174;48.138;21.002;2023-08-07T06:59:04;98435.25;;;18.86;71.55
76126;BME280;65174;48.138;21.002;2023-08-07T07:02:06;98438.88;;;19.08;72.25
76126;BME280;65174;48.138;21.002;2023-08-07T07:05:08;98433.66;;;19.23;73.31
76126;BME280;65174;48.138;21.002;2023-08-07T07:08:10;98434.47;;;19.23;70.60
76126;BME280;65174;48.138;21.002;2023-08-07T07:11:12;98431.06;;;19.00;69.80
76126;BME280;65174;48.138;21.002;2023-08-07T07:14:14;98437.22;;;19.07;71.03
76126;BME280;65174;48.138;21.002;2023-08-07T07:17:16;98442.84;;;18.96;71.27
76126;BME280;65174;48.138;21.002;2023-08-07T07:20:18;98441.00;;;19.04;70.26
76126;BME280;65174;48.138;21.002;2023-08-07T07:23:20;98445.13;;;18.99;69.47
76126;BME280;65174;48.138;21.002;2023-08-07T07:26:22;98442.19;;;19.17;71.31
76126;BME280;65174;48.138;21.002;2023-08-07T07:29:24;98440.81;;;19.29;68.64
76126;BME280;65174;48.138;21.002;2023-08-07T07:32:26;98450.91;;;19.32;70.39
76126;BME280;65174;48.138;21.002;2023-08-07T07:35:28;98448.72;;;19.21;68.58
76126;BME280;65174;48.138;21.002;2023-08-07T07:38:30;98449.88;;;19.18;70.01
76126;BME280;65174;48.138;21.002;2023-08-07T07:41:32;98462.66;;;19.13;69.90
76126;BME280;65174;48.138;21.002;2023-08-07T07:44:34;98461.63;;;19.22;68.67
76126;BME280;65174;48.138;21.002;2023-08-07T07:47:40;98456.91;;;19.40;71.22
76126;BME280;65174;48.138;21.002;2023-08-07T07:50:42;98460.88;;;19.36;66.76
76126;BME280;65174;48.138;21.002;2023-08-07T07:53:44;98463.13;;;19.39;67.79
76126;BME280;65174;48.138;21.002;2023-08-07T07:56:48;98475.75;;;19.50;68.34
76126;BME280;65174;48.138;21.002;2023-08-07T07:59:50;98466.22;;;19.57;67.61
76126;BME280;65174;48.138;21.002;2023-08-07T08:02:54;98475.00;;;19.64;66.65
76126;BME280;65174;48.138;21.002;2023-08-07T08:05:56;98474.78;;;19.51;67.56
76126;BME280;65174;48.138;21.002;2023-08-07T08:08:58;98480.94;;;19.58;67.90
76126;BME280;65174;48.138;21.002;2023-08-07T08:12:01;98487.00;;;19.73;66.59
76126;BME280;65174;48.138;21.002;2023-08-07T08:15:03;98488.09;;;19.94;65.52
76126;BME280;65174;48.138;21.002;2023-08-07T08:18:06;98489.75;;;20.24;66.21
76126;BME280;65174;48.138;21.002;2023-08-07T08:21:08;98492.06;;;20.48;67.18
76126;BME280;65174;48.138;21.002;2023-08-07T08:24:10;98491.97;;;20.56;63.04
76126;BME280;65174;48.138;21.002;2023-08-07T08:27:12;98498.69;;;20.15;66.32
76126;BME280;65174;48.138;21.002;2023-08-07T08:30:14;98502.38;;;19.91;63.56
76126;BME280;65174;48.138;21.002;2023-08-07T08:33:16;98501.72;;;19.89;66.33
76126;BME280;65174;48.138;21.002;2023-08-07T08:36:19;98493.78;;;19.97;65.05
76126;BME280;65174;48.138;21.002;2023-08-07T08:39:21;98506.09;;;19.59;65.01
76126;BME280;65174;48.138;21.002;2023-08-07T08:42:23;98502.91;;;20.01;65.32
76126;BME280;65174;48.138;21.002;2023-08-07T08:45:26;98496.88;;;20.30;64.63
76126;BME280;65174;48.138;21.002;2023-08-07T08:48:30;98491.56;;;20.38;65.18
76126;BME280;65174;48.138;21.002;2023-08-07T08:51:36;98501.13;;;20.31;63.53
76126;BME280;65174;48.138;21.002;2023-08-07T08:54:40;98493.16;;;20.39;63.34
76126;BME280;65174;48.138;21.002;2023-08-07T08:57:42;98504.53;;;20.61;63.26
76126;BME280;65174;48.138;21.002;2023-08-07T09:00:44;98502.91;;;20.45;64.87
76126;BME280;65174;48.138;21.002;2023-08-07T09:03:47;98496.50;;;20.04;64.95
76126;BME280;65174;48.138;21.002;2023-08-07T09:06:49;98504.88;;;20.14;64.71
76126;BME280;65174;48.138;21.002;2023-08-07T09:09:52;98507.97;;;20.32;63.15
76126;BME280;65174;48.138;21.002;2023-08-07T09:13:01;98506.91;;;20.26;64.44
76126;BME280;65174;48.138;21.002;2023-08-07T09:16:07;98519.31;;;19.80;66.85
76126;BME280;65174;48.138;21.002;2023-08-07T09:19:10;98507.72;;;19.46;64.94
76126;BME280;65174;48.138;21.002;2023-08-07T09:22:12;98506.59;;;19.18;65.06
76126;BME280;65174;48.138;21.002;2023-08-07T09:25:14;98518.66;;;18.96;68.50
76126;BME280;65174;48.138;21.002;2023-08-07T09:28:16;98523.66;;;18.83;69.18
76126;BME280;65174;48.138;21.002;2023-08-07T09:31:19;98522.75;;;18.68;70.79
76126;BME280;65174;48.138;21.002;2023-08-07T09:34:23;98523.66;;;18.44;72.52
76126;BME280;65174;48.138;21.002;2023-08-07T09:37:25;98530.25;;;18.24;74.40
76126;BME280;65174;48.138;21.002;2023-08-07T09:40:29;98544.31;;;18.15;74.17
76126;BME280;65174;48.138;21.002;2023-08-07T09:43:37;98556.91;;;18.03;73.94
76126;BME280;65174;48.138;21.002;2023-08-07T09:46:43;98557.56;;;17.81;78.99
76126;BME280;65174;48.138;21.002;2023-08-07T09:49:45;98561.00;;;17.90;78.24
76126;BME280;65174;48.138;21.002;2023-08-07T09:52:51;98555.38;;;18.17;80.20
76126;BME280;65174;48.138;21.002;2023-08-07T09:55:54;98536.66;;;18.60;77.35
76126;BME280;65174;48.138;21.002;2023-08-07T09:58:57;98551.09;;;18.79;71.37
76126;BME280;65174;48.138;21.002;2023-08-07T10:02:01;98552.69;;;18.88;70.12
76126;BME280;65174;48.138;21.002;2023-08-07T10:05:07;98545.03;;;19.09;71.63
76126;BME280;65174;48.138;21.002;2023-08-07T10:08:11;98543.38;;;19.16;67.05
76126;BME280;65174;48.138;21.002;2023-08-07T10:11:13;98542.28;;;19.33;69.16
76126;BME280;65174;48.138;21.002;2023-08-07T10:14:18;98536.94;;;19.87;66.79
76126;BME280;65174;48.138;21.002;2023-08-07T10:17:24;98544.38;;;20.41;63.91
76126;BME280;65174;48.138;21.002;2023-08-07T10:20:28;98545.06;;;20.79;62.54
76126;BME280;65174;48.138;21.002;2023-08-07T10:23:31;98544.59;;;20.90;59.76
76126;BME280;65174;48.138;21.002;2023-08-07T10:26:35;98552.94;;;20.65;59.41
76126;BME280;65174;48.138;21.002;2023-08-07T10:29:38;98552.88;;;20.29;58.35
76126;BME280;65174;48.138;21.002;2023-08-07T10:32:42;98555.53;;;19.92;61.77
76126;BME280;65174;48.138;21.002;2023-08-07T10:35:46;98560.25;;;20.11;62.47
76126;BME280;65174;48.138;21.002;2023-08-07T10:38:50;98553.28;;;20.76;60.14
76126;BME280;65174;48.138;21.002;2023-08-07T10:41:55;98565.47;;;20.84;55.67
76126;BME280;65174;48.138;21.002;2023-08-07T10:45:01;98570.75;;;20.54;60.13
76126;BME280;65174;48.138;21.002;2023-08-07T10:48:12;98574.19;;;20.26;57.98
76126;BME280;65174;48.138;21.002;2023-08-07T10:51:16;98583.34;;;20.07;60.38
76126;BME280;65174;48.138;21.002;2023-08-07T10:54:19;98582.66;;;20.57;56.12
76126;BME280;65174;48.138;21.002;2023-08-07T10:57:21;98584.81;;;20.83;59.24
76126;BME280;65174;48.138;21.002;2023-08-07T11:00:27;98594.44;;;21.11;57.62
76126;BME280;65174;48.138;21.002;2023-08-07T11:03:30;98593.97;;;21.22;57.42
76126;BME280;65174;48.138;21.002;2023-08-07T11:06:38;98598.97;;;20.38;57.03
76126;BME280;65174;48.138;21.002;2023-08-07T11:09:41;98600.16;;;19.98;57.14
76126;BME280;65174;48.138;21.002;2023-08-07T11:12:43;98603.09;;;20.47;60.25
76126;BME280;65174;48.138;21.002;2023-08-07T11:15:46;98603.47;;;20.44;57.22
76126;BME280;65174;48.138;21.002;2023-08-07T11:18:49;98603.00;;;20.55;59.19
76126;BME280;65174;48.138;21.002;2023-08-07T11:21:53;98611.56;;;20.78;57.10
76126;BME280;65174;48.138;21.002;2023-08-07T11:24:56;98608.88;;;20.42;57.38
76126;BME280;65174;48.138;21.002;2023-08-07T11:27:59;98611.69;;;20.04;57.86
76126;BME280;65174;48.138;21.002;2023-08-07T11:31:01;98615.28;;;20.03;58.09
76126;BME280;65174;48.138;21.002;2023-08-07T11:34:03;98618.75;;;20.18;58.92
76126;BME280;65174;48.138;21.002;2023-08-07T11:37:05;98625.28;;;19.85;59.27
76126;BME280;65174;48.138;21.002;2023-08-07T11:40:08;98633.97;;;19.62;59.70
76126;BME280;65174;48.138;21.002;2023-08-07T11:43:10;98636.75;;;19.30;61.44
76126;BME280;65174;48.138;21.002;2023-08-07T11:46:14;98638.50;;;19.07;61.54
76126;BME280;65174;48.138;21.002;2023-08-07T11:49:16;98635.75;;;19.00;60.52
76126;BME280;65174;48.138;21.002;2023-08-07T11:52:18;98626.31;;;18.99;60.91
76126;BME280;65174;48.138;21.002;2023-08-07T11:55:20;98643.97;;;18.97;61.22
76126;BME280;65174;48.138;21.002;2023-08-07T11:58:24;98635.34;;;19.20;60.70
76126;BME280;65174;48.138;21.002;2023-08-07T12:01:27;98649.25;;;19.51;61.31
76126;BME280;65174;48.138;21.002;2023-08-07T12:04:31;98651.09;;;19.42;61.34
76126;BME280;65174;48.138;21.002;2023-08-07T12:07:37;98662.25;;;19.36;61.32
76126;BME280;65174;48.138;21.002;2023-08-07T12:10:40;98654.94;;;18.93;60.96
76126;BME280;65174;48.138;21.002;2023-08-07T12:13:44;98660.19;;;18.77;61.44
76126;BME280;65174;48.138;21.002;2023-08-07T12:16:47;98662.81;;;18.85;60.27
76126;BME280;65174;48.138;21.002;2023-08-07T12:19:50;98661.97;;;18.84;62.13
76126;BME280;65174;48.138;21.002;2023-08-07T12:22:52;98666.38;;;18.84;61.89
76126;BME280;65174;48.138;21.002;2023-08-07T12:25:54;98663.31;;;18.80;61.08
76126;BME280;65174;48.138;21.002;2023-08-07T12:28:56;98659.53;;;18.75;61.94
76126;BME280;65174;48.138;21.002;2023-08-07T12:31:58;98663.44;;;18.79;62.42
76126;BME280;65174;48.138;21.002;2023-08-07T12:35:03;98666.38;;;18.84;61.00
76126;BME280;65174;48.138;21.002;2023-08-07T12:38:08;98677.31;;;18.87;61.98
76126;BME280;65174;48.138;21.002;2023-08-07T12:41:11;98682.34;;;18.97;62.60
76126;BME280;65174;48.138;21.002;2023-08-07T12:44:16;98681.59;;;19.19;59.63
76126;BME280;65174;48.138;21.002;2023-08-07T12:47:18;98689.03;;;18.91;59.24
76126;BME280;65174;48.138;21.002;2023-08-07T12:50:20;98693.50;;;18.83;61.39
76126;BME280;65174;48.138;21.002;2023-08-07T12:53:22;98680.03;;;19.02;59.03
76126;BME280;65174;48.138;21.002;2023-08-07T12:56:24;98690.25;;;18.81;61.02
76126;BME280;65174;48.138;21.002;2023-08-07T12:59:26;98702.25;;;18.51;62.42
76126;BME280;65174;48.138;21.002;2023-08-07T13:02:28;98696.84;;;18.20;61.79
76126;BME280;65174;48.138;21.002;2023-08-07T13:05:30;98694.72;;;17.84;62.13
76126;BME280;65174;48.138;21.002;2023-08-07T13:08:33;98700.91;;;17.83;64.48
76126;BME280;65174;48.138;21.002;2023-08-07T13:11:36;98699.28;;;18.14;64.11
76126;BME280;65174;48.138;21.002;2023-08-07T13:14:38;98689.97;;;18.52;62.85
76126;BME280;65174;48.138;21.002;2023-08-07T13:17:41;98698.59;;;18.76;62.82
76126;BME280;65174;48.138;21.002;2023-08-07T13:20:43;98694.84;;;18.71;62.49
76126;BME280;65174;48.138;21.002;2023-08-07T13:23:45;98698.50;;;18.13;61.47
76126;BME280;65174;48.138;21.002;2023-08-07T13:26:47;98698.81;;;18.10;63.58
76126;BME280;65174;48.138;21.002;2023-08-07T13:29:49;98694.25;;;18.45;62.52
76126;BME280;65174;48.138;21.002;2023-08-07T13:32:51;98700.06;;;18.71;61.65
76126;BME280;65174;48.138;21.002;2023-08-07T13:35:53;98694.63;;;18.88;61.23
76126;BME280;65174;48.138;21.002;2023-08-07T13:38:55;98709.13;;;18.99;59.13
76126;BME280;65174;48.138;21.002;2023-08-07T13:41:57;98712.50;;;19.16;60.03
76126;BME280;65174;48.138;21.002;2023-08-07T13:45:01;98710.84;;;19.15;59.65
76126;BME280;65174;48.138;21.002;2023-08-07T13:48:03;98708.97;;;19.31;59.67
76126;BME280;65174;48.138;21.002;2023-08-07T13:51:08;98714.88;;;19.33;61.34
76126;BME280;65174;48.138;21.002;2023-08-07T13:54:10;98715.56;;;19.35;60.88
76126;BME280;65174;48.138;21.002;2023-08-07T13:57:12;98722.69;;;18.94;60.07
76126;BME280;65174;48.138;21.002;2023-08-07T14:00:14;98725.94;;;19.04;62.27
76126;BME280;65174;48.138;21.002;2023-08-07T14:03:16;98716.16;;;18.98;60.76
76126;BME280;65174;48.138;21.002;2023-08-07T14:06:18;98722.50;;;19.12;61.43
76126;BME280;65174;48.138;21.002;2023-08-07T14:09:20;98717.00;;;19.38;59.30
76126;BME280;65174;48.138;21.002;2023-08-07T14:12:23;98722.69;;;18.94;59.96
76126;BME280;65174;48.138;21.002;2023-08-07T14:15:25;98718.69;;;18.76;61.14
76126;BME280;65174;48.138;21.002;2023-08-07T14:18:27;98732.09;;;18.57;62.63
76126;BME280;65174;48.138;21.002;2023-08-07T14:21:29;98726.69;;;18.58;60.80
76126;BME280;65174;48.138;21.002;2023-08-07T14:24:31;98736.13;;;18.75;62.86
76126;BME280;65174;48.138;21.002;2023-08-07T14:27:33;98733.50;;;18.83;62.42
76126;BME280;65174;48.138;21.002;2023-08-07T14:30:35;98741.06;;;18.78;61.43
76126;BME280;65174;48.138;21.002;2023-08-07T14:33:37;98742.53;;;18.65;60.39
76126;BME280;65174;48.138;21.002;2023-08-07T14:36:40;98737.63;;;18.70;62.00
76126;BME280;65174;48.138;21.002;2023-08-07T14:39:42;98739.59;;;18.76;61.61
76126;BME280;65174;48.138;21.002;2023-08-07T14:42:44;98739.59;;;18.68;62.35
76126;BME280;65174;48.138;21.002;2023-08-07T14:45:46;98738.75;;;18.35;61.27
76126;BME280;65174;48.138;21.002;2023-08-07T14:48:49;98742.53;;;18.16;62.83
76126;BME280;65174;48.138;21.002;2023-08-07T14:51:51;98748.53;;;17.85;62.76
76126;BME280;65174;48.138;21.002;2023-08-07T14:54:54;98739.22;;;17.74;63.80
76126;BME280;65174;48.138;21.002;2023-08-07T14:57:59;98741.81;;;17.74;65.20
76126;BME280;65174;48.138;21.002;2023-08-07T15:01:00;98742.16;;;17.79;65.44
76126;BME280;65174;48.138;21.002;2023-08-07T15:04:02;98738.66;;;18.45;64.53
76126;BME280;65174;48.138;21.002;2023-08-07T15:07:05;98745.16;;;18.65;60.67
76126;BME280;65174;48.138;21.002;2023-08-07T15:10:08;98746.06;;;18.88;61.30
76126;BME280;65174;48.138;21.002;2023-08-07T15:13:10;98743.16;;;18.91;60.61
76126;BME280;65174;48.138;21.002;2023-08-07T15:16:12;98745.13;;;18.81;59.68
76126;BME280;65174;48.138;21.002;2023-08-07T15:19:14;98741.06;;;18.62;60.93
76126;BME280;65174;48.138;21.002;2023-08-07T15:22:16;98748.91;;;18.46;62.28
76126;BME280;65174;48.138;21.002;2023-08-07T15:25:18;98747.78;;;18.57;63.65
76126;BME280;65174;48.138;21.002;2023-08-07T15:28:20;98745.94;;;18.73;61.41
76126;BME280;65174;48.138;21.002;2023-08-07T15:31:22;98744.16;;;18.74;60.81
76126;BME280;65174;48.138;21.002;2023-08-07T15:34:24;98746.13;;;18.40;61.67
76126;BME280;65174;48.138;21.002;2023-08-07T15:37:27;98749.88;;;18.21;63.29
76126;BME280;65174;48.138;21.002;2023-08-07T15:40:29;98761.44;;;18.18;63.00
76126;BME280;65174;48.138;21.002;2023-08-07T15:43:31;98758.34;;;18.31;64.48
76126;BME280;65174;48.138;21.002;2023-08-07T15:46:32;98761.63;;;18.33;63.51
76126;BME280;65174;48.138;21.002;2023-08-07T15:49:35;98755.59;;;18.33;63.60
76126;BME280;65174;48.138;21.002;2023-08-07T15:52:37;98753.31;;;18.21;64.17
76126;BME280;65174;48.138;21.002;2023-08-07T15:55:39;98759.00;;;18.09;65.18
76126;BME280;65174;48.138;21.002;2023-08-07T15:58:40;98758.13;;;17.76;65.70
76126;BME280;65174;48.138;21.002;2023-08-07T16:01:42;98756.13;;;17.62;66.81